createdAt,value
2022-10-28T00:01:18.229Z,100.00
2022-10-28T00:03:47.969Z,100.00
2022-10-28T00:06:20.874Z,100.00
2022-10-28T00:08:48.069Z,100.00
2022-10-28T00:11:20.119Z,100.00
2022-10-28T00:13:47.829Z,100.00
2022-10-28T00:16:21.044Z,100.00
2022-10-28T00:18:48.423Z,100.00
2022-10-28T00:21:19.383Z,100.00
2022-10-28T00:23:46.082Z,100.00
2022-10-28T00:26:18.254Z,100.00
2022-10-28T00:28:56.309Z,100.00
2022-10-28T00:31:25.173Z,100.00
2022-10-28T00:33:52.685Z,100.00
2022-10-28T00:36:23.528Z,100.00
2022-10-28T00:38:51.846Z,100.00
2022-10-28T00:41:31.537Z,100.00
2022-10-28T00:44:22.221Z,100.00
2022-10-28T00:46:53.312Z,100.00
2022-10-28T00:49:38.045Z,100.00
2022-10-28T00:52:15.581Z,100.00
2022-10-28T00:54:43.857Z,100.00
2022-10-28T00:57:14.652Z,100.00
2022-10-28T00:59:45.875Z,100.00
2022-10-28T01:02:12.808Z,100.00
2022-10-28T01:04:39.868Z,100.00
2022-10-28T01:07:06.713Z,100.00
2022-10-28T01:09:33.283Z,100.00
2022-10-28T01:12:25.532Z,100.00
2022-10-28T01:15:25.603Z,100.00
2022-10-28T01:18:23.703Z,100.00
2022-10-28T01:21:11.604Z,100.00
2022-10-28T01:23:47.207Z,100.00
2022-10-28T01:26:22.875Z,100.00
2022-10-28T01:29:10.690Z,100.00
2022-10-28T01:32:05.560Z,100.00
2022-10-28T01:34:50.803Z,100.00
2022-10-28T01:37:31.976Z,100.00
2022-10-28T01:40:04.683Z,100.00
2022-10-28T01:42:51.718Z,100.00
2022-10-28T01:45:30.776Z,100.00
2022-10-28T01:48:10.609Z,100.00
2022-10-28T01:50:46.630Z,100.00
2022-10-28T01:53:18.444Z,100.00
2022-10-28T01:55:50.676Z,100.00
2022-10-28T01:58:21.763Z,100.00
2022-10-28T02:00:49.158Z,100.00
2022-10-28T02:03:17.230Z,100.00
2022-10-28T02:05:48.553Z,100.00
2022-10-28T02:08:17.971Z,100.00
2022-10-28T02:11:15.437Z,100.00
2022-10-28T02:14:18.837Z,100.00
2022-10-28T02:17:06.563Z,100.00
2022-10-28T02:19:51.880Z,100.00
2022-10-28T02:22:48.768Z,100.00
2022-10-28T02:25:19.270Z,100.00
2022-10-28T02:27:58.796Z,100.00
2022-10-28T02:30:34.867Z,100.00
2022-10-28T02:33:05.065Z,100.00
2022-10-28T02:35:38.655Z,100.00
2022-10-28T02:38:12.892Z,100.00
2022-10-28T02:40:41.599Z,100.00
2022-10-28T02:43:10.602Z,100.00
2022-10-28T02:45:43.218Z,100.00
2022-10-28T02:48:23.578Z,100.00
2022-10-28T02:50:55.923Z,100.00
2022-10-28T02:53:31.907Z,100.00
2022-10-28T02:55:59.503Z,100.00
2022-10-28T02:58:26.466Z,100.00
2022-10-28T03:00:53.046Z,100.00
2022-10-28T03:03:19.808Z,100.00
2022-10-28T03:05:46.384Z,100.00
2022-10-28T03:08:12.913Z,100.00
2022-10-28T03:10:39.498Z,100.00
2022-10-28T03:13:06.042Z,100.00
2022-10-28T03:15:32.613Z,100.00
2022-10-28T03:17:59.150Z,100.00
2022-10-28T03:20:25.694Z,100.00
2022-10-28T03:22:52.514Z,100.00
2022-10-28T03:25:19.344Z,100.00
2022-10-28T03:27:45.937Z,100.00
2022-10-28T03:30:14.418Z,100.00
2022-10-28T03:32:44.099Z,100.00
2022-10-28T03:35:10.925Z,100.00
2022-10-28T03:37:37.457Z,100.00
2022-10-28T03:40:07.904Z,100.00
2022-10-28T03:42:36.454Z,100.00
2022-10-28T03:45:05.994Z,100.00
2022-10-28T03:47:32.542Z,100.00
2022-10-28T03:49:59.053Z,100.00
2022-10-28T03:52:25.706Z,100.00
2022-10-28T03:54:52.240Z,100.00
2022-10-28T03:57:18.771Z,100.00
2022-10-28T03:59:45.316Z,100.00
2022-10-28T04:02:12.289Z,100.00
2022-10-28T04:04:38.976Z,100.00
2022-10-28T04:07:05.509Z,100.00
2022-10-28T04:09:32.051Z,100.00
2022-10-28T04:11:58.668Z,100.00
2022-10-28T04:14:25.230Z,100.00
2022-10-28T04:16:51.814Z,100.00
2022-10-28T04:19:18.358Z,100.00
2022-10-28T04:21:44.931Z,100.00
2022-10-28T04:24:11.466Z,100.00
2022-10-28T04:26:38.003Z,100.00
2022-10-28T04:29:04.569Z,100.00
2022-10-28T04:31:31.099Z,100.00
2022-10-28T04:33:57.620Z,100.00
2022-10-28T04:36:24.209Z,100.00
2022-10-28T04:38:51.993Z,100.00
2022-10-28T04:41:18.579Z,100.00
2022-10-28T04:43:45.106Z,100.00
2022-10-28T04:46:11.625Z,100.00
2022-10-28T04:48:38.177Z,100.00
2022-10-28T04:51:04.981Z,100.00
2022-10-28T04:53:31.648Z,100.00
2022-10-28T04:55:59.400Z,100.00
2022-10-28T04:58:26.743Z,100.00
2022-10-28T05:00:53.292Z,100.00
2022-10-28T05:03:19.824Z,100.00
2022-10-28T05:05:47.500Z,100.00
2022-10-28T05:08:14.449Z,100.00
2022-10-28T05:10:41.082Z,100.00
2022-10-28T05:13:07.685Z,100.00
2022-10-28T05:15:34.215Z,100.00
2022-10-28T05:18:00.923Z,100.00
2022-10-28T05:20:27.559Z,100.00
2022-10-28T05:22:55.322Z,100.00
2022-10-28T05:25:23.031Z,100.00
2022-10-28T05:27:50.820Z,100.00
2022-10-28T05:30:18.392Z,100.00
2022-10-28T05:32:45.238Z,100.00
2022-10-28T05:35:11.965Z,100.00
2022-10-28T05:37:38.533Z,100.00
2022-10-28T05:40:05.495Z,100.00
2022-10-28T05:42:32.097Z,100.00
2022-10-28T05:44:58.718Z,100.00
2022-10-28T05:47:25.324Z,100.00
2022-10-28T05:49:51.849Z,100.00
2022-10-28T05:52:18.429Z,100.00
2022-10-28T05:54:44.984Z,100.00
2022-10-28T05:57:11.519Z,100.00
2022-10-28T05:59:38.528Z,100.00
2022-10-28T06:02:05.057Z,100.00
2022-10-28T06:04:32.928Z,100.00
2022-10-28T06:06:59.522Z,100.00
2022-10-28T06:09:30.460Z,100.00
2022-10-28T06:11:55.485Z,100.00
2022-10-28T06:14:22.123Z,100.00
2022-10-28T06:16:48.693Z,100.00
2022-10-28T06:19:15.263Z,100.00
2022-10-28T06:21:43.302Z,100.00
2022-10-28T06:24:12.094Z,100.00
2022-10-28T06:26:39.059Z,100.00
2022-10-28T06:29:08.807Z,100.00
2022-10-28T06:31:38.640Z,100.00
2022-10-28T06:34:05.323Z,100.00
2022-10-28T06:36:31.884Z,100.00
2022-10-28T06:38:58.422Z,100.00
2022-10-28T06:41:24.991Z,100.00
2022-10-28T06:43:51.630Z,100.00
2022-10-28T06:46:18.401Z,100.00
2022-10-28T06:48:46.487Z,100.00
2022-10-28T06:51:13.041Z,100.00
2022-10-28T06:53:39.600Z,100.00
2022-10-28T06:56:06.508Z,100.00
2022-10-28T06:58:33.123Z,100.00
2022-10-28T07:01:04.318Z,100.00
2022-10-28T07:03:32.912Z,100.00
2022-10-28T07:06:00.146Z,100.00
2022-10-28T07:08:27.301Z,100.00
2022-10-28T07:10:58.613Z,100.00
2022-10-28T07:13:26.071Z,100.00
2022-10-28T07:15:53.680Z,100.00
2022-10-28T07:18:21.223Z,100.00
2022-10-28T07:20:48.128Z,100.00
2022-10-28T07:23:14.668Z,100.00
2022-10-28T07:25:41.589Z,100.00
2022-10-28T07:28:08.458Z,100.00
2022-10-28T07:30:35.149Z,100.00
2022-10-28T07:33:01.766Z,100.00
2022-10-28T07:35:28.686Z,100.00
2022-10-28T07:37:55.215Z,100.00
2022-10-28T07:40:22.366Z,100.00
2022-10-28T07:42:50.331Z,100.00
2022-10-28T07:45:17.900Z,100.00
2022-10-28T07:47:44.840Z,100.00
2022-10-28T07:50:12.436Z,100.00
2022-10-28T07:52:38.996Z,100.00
2022-10-28T07:55:06.325Z,100.00
2022-10-28T07:57:34.655Z,100.00
2022-10-28T08:00:01.544Z,100.00
2022-10-28T08:02:28.088Z,100.00
2022-10-28T08:04:55.949Z,100.00
2022-10-28T08:07:22.980Z,100.00
2022-10-28T08:09:49.558Z,100.00
2022-10-28T08:12:16.315Z,100.00
2022-10-28T08:14:42.833Z,100.00
2022-10-28T08:17:09.469Z,100.00
2022-10-28T08:19:36.057Z,100.00
2022-10-28T08:22:03.328Z,100.00
2022-10-28T08:24:29.900Z,100.00
2022-10-28T08:26:56.545Z,100.00
2022-10-28T08:29:27.676Z,100.00
2022-10-28T08:31:57.842Z,100.00
2022-10-28T08:34:29.667Z,100.00
2022-10-28T08:36:57.285Z,100.00
2022-10-28T08:39:23.993Z,100.00
2022-10-28T08:42:03.841Z,100.00
2022-10-28T08:44:55.610Z,100.00
2022-10-28T08:47:30.868Z,100.00
2022-10-28T08:50:09.601Z,100.00
2022-10-28T08:52:48.029Z,100.00
2022-10-28T08:55:20.786Z,100.00
2022-10-28T08:57:54.001Z,100.00
2022-10-28T09:00:26.824Z,100.00
2022-10-28T09:03:11.536Z,100.00
2022-10-28T09:05:50.033Z,100.00
2022-10-28T09:08:25.680Z,100.00
2022-10-28T09:11:04.297Z,100.00
2022-10-28T09:13:33.551Z,100.00
2022-10-28T09:16:27.933Z,100.00
2022-10-28T09:19:03.196Z,100.00
2022-10-28T09:21:54.506Z,100.00
2022-10-28T09:24:44.482Z,100.00
2022-10-28T09:27:13.956Z,100.00
2022-10-28T09:30:05.756Z,100.00
2022-10-28T09:32:45.446Z,100.00
2022-10-28T09:35:26.023Z,100.00
2022-10-28T09:38:06.921Z,100.00
2022-10-28T09:40:36.159Z,100.00
2022-10-28T09:43:02.805Z,100.00
2022-10-28T09:45:33.391Z,100.00
2022-10-28T09:48:24.357Z,100.00
2022-10-28T09:50:54.160Z,100.00
2022-10-28T09:53:37.072Z,100.00
2022-10-28T09:56:06.471Z,100.00
2022-10-28T09:58:34.650Z,100.00
2022-10-28T10:01:02.581Z,100.00
2022-10-28T10:03:29.461Z,100.00
2022-10-28T10:05:59.493Z,100.00
2022-10-28T10:08:26.246Z,100.00
2022-10-28T10:10:57.610Z,100.00
2022-10-28T10:13:29.393Z,100.00
2022-10-28T10:16:01.976Z,100.00
2022-10-28T10:18:34.264Z,100.00
2022-10-28T10:21:01.317Z,100.00
2022-10-28T10:23:33.813Z,100.00
2022-10-28T10:26:12.043Z,98.76
2022-10-28T10:28:44.395Z,95.49
2022-10-28T10:31:26.475Z,93.40
2022-10-28T10:33:55.818Z,87.68
2022-10-28T10:36:28.364Z,83.30
2022-10-28T10:38:57.271Z,87.01
2022-10-28T10:41:40.189Z,89.11
2022-10-28T10:44:22.201Z,81.77
2022-10-28T10:47:05.773Z,79.01
2022-10-28T10:49:34.541Z,78.72
2022-10-28T10:52:04.771Z,80.09
2022-10-28T10:54:33.238Z,76.68
2022-10-28T10:57:15.544Z,71.56
2022-10-28T10:59:46.226Z,64.15
2022-10-28T11:02:30.014Z,56.49
2022-10-28T11:05:01.344Z,46.34
2022-10-28T11:07:29.959Z,41.36
2022-10-28T11:09:56.745Z,38.99
2022-10-28T11:12:29.352Z,37.61
2022-10-28T11:15:01.081Z,36.65
2022-10-28T11:20:33.577Z,31.00
2022-10-28T11:23:33.108Z,31.15
2022-10-28T11:26:07.558Z,30.51
2022-10-28T11:28:52.073Z,31.82
2022-10-28T11:31:40.460Z,32.91
2022-10-28T11:34:31.042Z,32.53
2022-10-28T11:36:57.566Z,32.69
2022-10-28T11:39:51.588Z,34.37
2022-10-28T11:42:48.746Z,36.81
2022-10-28T11:45:19.853Z,36.10
2022-10-28T11:48:01.918Z,35.30
2022-10-28T11:50:39.870Z,36.57
2022-10-28T11:53:25.256Z,37.79
2022-10-28T11:56:10.600Z,37.63
2022-10-28T11:58:46.022Z,39.10
2022-10-28T12:01:31.605Z,39.07
2022-10-28T12:04:25.484Z,36.58
2022-10-28T12:07:39.607Z,34.98
2022-10-28T12:10:42.779Z,33.96
2022-10-28T12:13:38.420Z,33.16
2022-10-28T12:16:17.913Z,35.83
2022-10-28T12:18:54.120Z,36.81
2022-10-28T12:21:31.686Z,39.60
2022-10-28T12:23:59.576Z,40.97
2022-10-28T12:26:40.081Z,42.95
2022-10-28T12:29:16.336Z,44.80
2022-10-28T12:31:47.834Z,45.96
2022-10-28T12:34:21.994Z,48.44
2022-10-28T12:36:53.653Z,48.77
2022-10-28T12:39:26.788Z,48.40
2022-10-28T12:42:18.742Z,49.55
2022-10-28T12:44:47.748Z,49.33
2022-10-28T12:47:42.153Z,49.02
2022-10-28T12:50:32.349Z,48.73
2022-10-28T12:53:01.847Z,47.93
2022-10-28T12:55:37.864Z,48.81
2022-10-28T12:58:27.100Z,52.90
2022-10-28T13:01:00.269Z,56.13
2022-10-28T13:03:26.914Z,56.56
2022-10-28T13:06:17.738Z,53.36
2022-10-28T13:09:00.236Z,47.93
2022-10-28T13:11:43.066Z,45.68
2022-10-28T13:14:28.264Z,45.61
2022-10-28T13:17:32.180Z,47.12
2022-10-28T13:20:08.432Z,49.72
2022-10-28T13:22:52.935Z,54.07
2022-10-28T13:25:31.430Z,61.74
2022-10-28T13:27:59.734Z,73.15
2022-10-28T13:30:27.321Z,83.45
2022-10-28T13:33:14.483Z,92.83
2022-10-28T13:35:41.169Z,96.74
2022-10-28T13:38:13.236Z,100.00
2022-10-28T13:40:39.738Z,100.00
2022-10-28T13:43:21.616Z,100.00
2022-10-28T13:45:54.179Z,100.00
2022-10-28T13:48:43.723Z,100.00
2022-10-28T13:51:10.344Z,100.00
2022-10-28T13:53:45.967Z,100.00
2022-10-28T13:56:20.866Z,100.00
2022-10-28T13:59:10.468Z,100.00
2022-10-28T14:02:07.985Z,100.00
2022-10-28T14:04:42.289Z,100.00
2022-10-28T14:07:08.801Z,100.00
2022-10-28T14:09:36.894Z,100.00
2022-10-28T14:12:23.038Z,100.00
2022-10-28T14:15:03.361Z,100.00
2022-10-28T14:17:34.471Z,100.00
2022-10-28T14:20:02.694Z,100.00
2022-10-28T14:22:36.212Z,100.00
2022-10-28T14:25:03.618Z,100.00
2022-10-28T14:27:41.277Z,100.00
2022-10-28T14:30:18.802Z,100.00
2022-10-28T14:32:58.504Z,100.00
2022-10-28T14:35:40.203Z,100.00
2022-10-28T14:38:30.899Z,100.00
2022-10-28T14:41:25.825Z,100.00
2022-10-28T14:44:13.693Z,100.00
2022-10-28T14:46:58.449Z,100.00
2022-10-28T14:49:29.031Z,100.00
2022-10-28T14:51:58.076Z,100.00
2022-10-28T14:54:39.831Z,100.00
2022-10-28T14:57:08.068Z,100.00
2022-10-28T14:59:40.313Z,100.00
2022-10-28T15:02:24.348Z,100.00
2022-10-28T15:05:24.393Z,100.00
2022-10-28T15:07:52.174Z,100.00
2022-10-28T15:10:38.227Z,100.00
2022-10-28T15:13:07.221Z,100.00
2022-10-28T15:15:37.356Z,100.00
2022-10-28T15:18:21.906Z,100.00
2022-10-28T15:20:49.943Z,100.00
2022-10-28T15:23:21.512Z,100.00
2022-10-28T15:26:10.583Z,100.00
2022-10-28T15:28:40.960Z,100.00
2022-10-28T15:31:07.889Z,100.00
2022-10-28T15:33:42.400Z,100.00
2022-10-28T15:36:23.386Z,100.00
2022-10-28T15:38:50.468Z,100.00
2022-10-28T15:41:23.049Z,100.00
2022-10-28T15:43:58.901Z,100.00
2022-10-28T15:46:25.483Z,100.00
2022-10-28T15:48:57.197Z,100.00
2022-10-28T15:51:24.892Z,100.00
2022-10-28T15:53:54.209Z,100.00
2022-10-28T15:56:27.588Z,100.00
2022-10-28T15:58:59.947Z,100.00
2022-10-28T16:01:27.904Z,100.00
2022-10-28T16:03:54.644Z,100.00
2022-10-28T16:06:32.621Z,100.00
2022-10-28T16:09:15.944Z,100.00
2022-10-28T16:11:46.621Z,100.00
2022-10-28T16:14:35.904Z,100.00
2022-10-28T16:17:35.647Z,100.00
2022-10-28T16:20:07.508Z,100.00
2022-10-28T16:22:36.544Z,100.00
2022-10-28T16:25:11.812Z,100.00
2022-10-28T16:27:38.608Z,100.00
2022-10-28T16:30:06.676Z,100.00
2022-10-28T16:32:38.049Z,100.00
2022-10-28T16:35:14.263Z,100.00
2022-10-28T16:37:44.791Z,100.00
2022-10-28T16:40:30.978Z,100.00
2022-10-28T16:43:01.514Z,100.00
2022-10-28T16:45:28.122Z,100.00
2022-10-28T16:47:55.005Z,100.00
2022-10-28T16:50:21.839Z,100.00
2022-10-28T16:52:48.426Z,100.00
2022-10-28T16:55:17.200Z,100.00
2022-10-28T16:57:43.760Z,100.00
2022-10-28T17:00:13.777Z,100.00
2022-10-28T17:02:40.709Z,100.00
2022-10-28T17:05:19.142Z,100.00
2022-10-28T17:07:45.758Z,100.00
2022-10-28T17:10:12.936Z,100.00
2022-10-28T17:12:39.565Z,100.00
2022-10-28T17:15:07.020Z,100.00
2022-10-28T17:17:33.618Z,100.00
2022-10-28T17:20:00.204Z,100.00
2022-10-28T17:22:27.541Z,100.00
2022-10-28T17:24:54.574Z,100.00
2022-10-28T17:27:21.232Z,100.00
2022-10-28T17:29:47.917Z,100.00
2022-10-28T17:32:15.075Z,100.00
2022-10-28T17:34:41.830Z,100.00
2022-10-28T17:37:08.480Z,100.00
2022-10-28T17:39:35.044Z,100.00
2022-10-28T17:42:02.163Z,100.00
2022-10-28T17:44:28.737Z,100.00
2022-10-28T17:46:55.336Z,100.00
2022-10-28T17:49:21.932Z,100.00
2022-10-28T17:51:48.529Z,100.00
2022-10-28T17:54:15.125Z,100.00
2022-10-28T17:56:42.284Z,100.00
2022-10-28T17:59:09.476Z,100.00
2022-10-28T18:01:36.538Z,100.00
2022-10-28T18:04:04.509Z,100.00
2022-10-28T18:06:31.088Z,100.00
2022-10-28T18:08:58.497Z,100.00
2022-10-28T18:11:26.550Z,100.00
2022-10-28T18:13:55.205Z,100.00
2022-10-28T18:16:28.238Z,100.00
2022-10-28T18:18:55.508Z,100.00
2022-10-28T18:21:23.089Z,100.00
2022-10-28T18:23:53.850Z,100.00
2022-10-28T18:26:21.254Z,100.00
2022-10-28T18:28:49.140Z,100.00
2022-10-28T18:31:18.211Z,100.00
2022-10-28T18:33:46.177Z,100.00
2022-10-28T18:36:15.385Z,100.00
2022-10-28T18:38:42.223Z,100.00
2022-10-28T18:41:17.392Z,100.00
2022-10-28T18:43:44.079Z,100.00
2022-10-28T18:46:10.907Z,100.00
2022-10-28T18:48:37.947Z,100.00
2022-10-28T18:51:07.341Z,100.00
2022-10-28T18:53:39.115Z,100.00
2022-10-28T18:56:08.018Z,100.00
2022-10-28T18:58:34.641Z,100.00
2022-10-28T19:01:12.372Z,100.00
2022-10-28T19:03:40.056Z,100.00
2022-10-28T19:06:12.281Z,100.00
2022-10-28T19:08:39.728Z,100.00
2022-10-28T19:11:07.284Z,100.00
2022-10-28T19:13:39.526Z,100.00
2022-10-28T19:16:06.863Z,100.00
2022-10-28T19:18:35.627Z,100.00
2022-10-28T19:21:04.373Z,100.00
2022-10-28T19:23:32.465Z,100.00
2022-10-28T19:25:59.511Z,100.00
2022-10-28T19:28:26.392Z,100.00
2022-10-28T19:31:01.033Z,100.00
2022-10-28T19:33:29.714Z,100.00
2022-10-28T19:36:14.339Z,100.00
2022-10-28T19:38:41.265Z,100.00
2022-10-28T19:41:11.082Z,100.00
2022-10-28T19:43:37.850Z,100.00
2022-10-28T19:46:11.607Z,100.00
2022-10-28T19:48:40.241Z,100.00
2022-10-28T19:51:08.214Z,100.00
2022-10-28T19:53:34.931Z,100.00
2022-10-28T19:56:03.323Z,100.00
2022-10-28T19:58:31.116Z,100.00
2022-10-28T20:00:58.653Z,100.00
2022-10-28T20:03:25.240Z,100.00
2022-10-28T20:06:05.867Z,100.00
2022-10-28T20:08:37.187Z,100.00
2022-10-28T20:11:06.414Z,100.00
2022-10-28T20:13:34.185Z,100.00
2022-10-28T20:16:06.160Z,100.00
2022-10-28T20:18:33.858Z,100.00
2022-10-28T20:21:11.542Z,100.00
2022-10-28T20:23:38.610Z,100.00
2022-10-28T20:26:06.105Z,100.00
2022-10-28T20:28:33.330Z,100.00
2022-10-28T20:31:09.559Z,100.00
2022-10-28T20:33:39.303Z,100.00
2022-10-28T20:36:07.565Z,100.00
2022-10-28T20:38:34.137Z,100.00
2022-10-28T20:41:01.120Z,100.00
2022-10-28T20:43:29.334Z,100.00
2022-10-28T20:46:01.385Z,100.00
2022-10-28T20:48:29.718Z,100.00
2022-10-28T20:51:02.164Z,100.00
2022-10-28T20:53:33.426Z,100.00
2022-10-28T20:56:01.519Z,100.00
2022-10-28T20:58:30.685Z,100.00
2022-10-28T21:01:05.565Z,100.00
2022-10-28T21:03:32.650Z,100.00
2022-10-28T21:05:59.697Z,100.00
2022-10-28T21:08:26.270Z,100.00
2022-10-28T21:10:52.832Z,100.00
2022-10-28T21:13:19.375Z,100.00
2022-10-28T21:15:46.312Z,100.00
2022-10-28T21:18:13.024Z,100.00
2022-10-28T21:20:40.061Z,100.00
2022-10-28T21:23:06.840Z,100.00
2022-10-28T21:25:33.852Z,100.00
2022-10-28T21:28:00.626Z,100.00
2022-10-28T21:30:27.893Z,100.00
2022-10-28T21:32:54.961Z,100.00
2022-10-28T21:35:21.896Z,100.00
2022-10-28T21:37:48.436Z,100.00
2022-10-28T21:40:15.254Z,100.00
2022-10-28T21:42:42.427Z,100.00
2022-10-28T21:45:09.309Z,100.00
2022-10-28T21:47:35.985Z,100.00
2022-10-28T21:50:02.569Z,100.00
2022-10-28T21:52:29.111Z,100.00
2022-10-28T21:54:55.703Z,100.00
2022-10-28T21:57:29.077Z,100.00
2022-10-28T21:59:56.646Z,100.00
2022-10-28T22:02:23.310Z,100.00
2022-10-28T22:04:49.992Z,100.00
2022-10-28T22:07:16.577Z,100.00
2022-10-28T22:09:43.108Z,100.00
2022-10-28T22:12:09.799Z,100.00
2022-10-28T22:14:36.465Z,100.00
2022-10-28T22:17:03.055Z,100.00
2022-10-28T22:19:29.637Z,100.00
2022-10-28T22:21:56.312Z,100.00
2022-10-28T22:24:22.855Z,100.00
2022-10-28T22:26:49.465Z,100.00
2022-10-28T22:29:16.038Z,100.00
2022-10-28T22:31:43.031Z,100.00
2022-10-28T22:34:09.571Z,100.00
2022-10-28T22:36:36.140Z,100.00
2022-10-28T22:39:02.923Z,100.00
2022-10-28T22:41:31.633Z,100.00
2022-10-28T22:44:00.451Z,100.00
2022-10-28T22:46:30.141Z,100.00
2022-10-28T22:48:56.867Z,100.00
2022-10-28T22:51:23.985Z,100.00
2022-10-28T22:53:50.876Z,100.00
2022-10-28T22:56:22.722Z,100.00
2022-10-28T22:58:53.846Z,100.00
2022-10-28T23:01:21.008Z,100.00
2022-10-28T23:03:49.725Z,100.00
2022-10-28T23:06:18.089Z,100.00
2022-10-28T23:08:45.312Z,100.00
2022-10-28T23:11:13.150Z,100.00
2022-10-28T23:13:40.006Z,100.00
2022-10-28T23:16:11.688Z,100.00
2022-10-28T23:18:38.745Z,100.00
2022-10-28T23:21:20.424Z,100.00
2022-10-28T23:23:51.173Z,100.00
2022-10-28T23:26:20.540Z,100.00
2022-10-28T23:28:51.760Z,100.00
2022-10-28T23:31:18.985Z,100.00
2022-10-28T23:33:45.796Z,100.00
2022-10-28T23:36:14.328Z,100.00
2022-10-28T23:38:41.595Z,100.00
2022-10-28T23:41:11.039Z,100.00
2022-10-28T23:43:37.889Z,100.00
2022-10-28T23:46:04.933Z,100.00
2022-10-28T23:48:31.542Z,100.00
2022-10-28T23:50:58.504Z,100.00
2022-10-28T23:53:25.122Z,100.00
2022-10-28T23:55:52.122Z,100.00
2022-10-28T23:58:20.763Z,100.00
